Woodland, NC (27897)

4:07 PM EDT on May 26, 2017 (GMT -0400)
Ashley's Grove | | Change Station
Active Advisory: Flood Warning

Elev 65 ft 36.38 °N, 77.19 °W | Updated 1 second ago

Partly Cloudy
Partly Cloudy
78.8 °F
Feels Like 80 °F
N
13.0
Wind Variable Wind from West
Gusts 19.0 mph

Today
High -- | Low -- °F
--% Chance of Precip.
Yesterday
High -- | Low -- °F
Precip. -- in
Pressure 29.86 in
Visibility 10.0 miles
Clouds Scattered Clouds 5000 ft
Heat Index 80 °F
Dew Point 59 °F
Humidity 51%
Rainfall 0.00 in
Snow Depth Not available.
5:55 AM 8:17 PM
New Moon, 2% visible
METAR KIXA 262000Z AUTO 28009G19KT 10SM SCT050 26/13 A2986 RMK AO2
Pressure 29.86 in
Visibility 10.0 miles
Clouds Scattered Clouds 5000 ft
Heat Index 80 °F
Dew Point 59 °F
Humidity 51%
Rainfall 0.00 in
Snow Depth Not available.
5:55 AM 8:17 PM
New Moon, 2% visible
METAR KIXA 262000Z AUTO 28009G19KT 10SM SCT050 26/13 A2986 RMK AO2

Get Your Daily Forecast Email!

Thanks for signing up!

Be on the lookout for a verification email in your inbox.

You'll start receiving severe weather alerts in your inbox..

×

10-Day Weather Forecast

Almanac

Astronomy

May. 26, 2017 Rise Set
Actual Time
Civil Twilight
Nautical Twilight
Astronomical Twilight
Moon
Length of Visible Light
Length of Day
Tomorrow will be .
, % of the Moon is Illuminated

Today's Extremes

State Highs State Lows

Community

WunderPhotos

Category 6

Welcome to Category 6. This is the collective home for Weather Underground's featured writeups by Dr. Jeff Masters (right), Bob Henson (left), Chris Burt, and other regular contributors.

Nearby

Air Quality

  Air Quality AQ Index Pollutant
Not available.

Snow Depth

Station Depth Elevation

Earthquake Activity

City Distance Mag. Time & Date
Minimum magnitude displayed is 2.5.

Coastal Water Temperatures

Place Temperature

Stations

Nearby Weather Stations

Station Location Temp. Windchill Dew Point Humidity Wind Precip. Elev Updated Type
                   

Watches & Warnings

Flood Warning
Issued: 8:41 AM EDT May. 26, 2017 – National Weather Service

The Flood Warning continues for
the lower Roanoke River at Roanoke Rapids.
* At 7:45 am Friday the stage was 9.3 feet.
* Flood stage is 9.0 feet.
* Minor flooding is occurring and minor flooding is forecast.
* Forecast... the river will continue rising to near 9.6 feet by
tomorrow morning.
* Impact... at 9.0 feet, minor flood stage. Farmlands and timberlands
adjacent to the river in Roanoke Rapids flood.


The following are the latest observations and 7 am forecast stages
for the next several days.

                 Fld observed forecast 7 am
location stg stg day time Sat sun Mon Tue Wed

Roanoke River
Roanoke Rapids 9 9.3 Fri 08 am 9.6 9.6 9.6 9.6 9.6


Lat... Lon 3652 7765 3641 7751 3635 7750 3628 7759
          3638 7761 3645 7765